• Join FlightAware (Why Join?)
  • Login
  • US Flag 
08:26AM EDT


 

Airport Tracker/Info


-or-


 

Live Flight TrackerFlight Track Log ✈ ASQ4233 ✈ 05-May-2013 ✈ KIAH - KBHM

Flight Track Log - Related Links

Times and Time Zones

All times are in EDT time to prevent confusion due to time zone crossing. See the ASQ4233 flight status page for this flight to view local times or setup timezone preferences in your user account.

Time Position Orientation Groundspeed Altitude Reporting Facility
EDT Latitude Longitude Course Direction KTS MPH feet Rate Location/Type
07:06PM 29.9767 -95.3008 90° East 176 203 700  Level Houston Center
07:07PM 29.9508 -95.2483 120° Southeast 227 261 2,700 1,980 Climbing Houston Center
07:08PM 29.8831 -95.1886 143° Southeast 259 298 5,200 2,400 Climbing Houston Center
07:09PM 29.8211 -95.1414 147° Southeast 293 337 7,600 2,400 Climbing Houston Center
07:10PM 29.9833 -94.6612 90° East  Level FlightAware Approximate
07:10PM 29.7544 -95.0797 141° Southeast 314 361 9,700  Level Houston Center
07:11PM 29.9834 -94.5268 90° East  Level FlightAware Approximate
07:11PM 29.7567 -94.9692 89° East 314 361 11,700  Level Houston Center
07:12PM 29.7917 -94.8697 68° East 334 384 12,400 1,080 Climbing Houston Center
07:13PM 29.8408 -94.7364 67° East 368 423 14,000 1,500 Climbing Houston Center
07:14PM 29.8794 -94.6264 68° East 372 428 15,500 1,440 Climbing Houston Center
07:15PM 29.9203 -94.5153 67° East 375 432 17,000 1,440 Climbing Houston Center
07:17PM 29.9986 -94.2917 68° East 378 435 20,000 1,440 Climbing Houston Center
07:18PM 30.0131 -94.1650 82° East 393 452 21,500 1,620 Climbing Houston Center
07:19PM 30.0325 -94.0128 82° East 401 461 23,400 1,620 Climbing Houston Center
07:20PM 30.0481 -93.8856 82° East 403 464 24,900 1,440 Climbing Houston Center
07:21PM 30.0642 -93.7589 82° East 401 461 26,400 1,380 Climbing Houston Center
07:22PM 30.0786 -93.6328 82° East 400 460 27,800 960 Climbing Houston Center
07:23PM 30.0933 -93.5036 82° East 410 472 28,400 540 Climbing Houston Center
07:24PM 30.1125 -93.3383 82° East 438 504 29,000 360 Climbing Houston Center
07:26PM 30.1247 -93.2022 82° East  Level FlightAware Approximate
07:26PM 30.1542 -93.0442 82° East 474 545 29,600  Level Houston Center
07:28PM 30.2225 -92.9236 57° Northeast 447 514 30,700 960 Climbing Houston Center
07:29PM 30.2944 -92.8064 55° Northeast 450 518 31,700 960 Climbing Houston Center
07:30PM 30.3669 -92.6883 55° Northeast 452 520 32,700 1,080 Climbing Houston Center
07:31PM 30.4542 -92.5458 55° Northeast 454 522 34,000 1,020 Climbing Houston Center
07:32PM 30.5242 -92.4308 55° Northeast 451 519 34,900 480 Climbing Houston Center
07:33PM 30.5981 -92.3103 55° Northeast 457 526 35,000  Climbing Houston Center
07:34PM 30.6725 -92.1875 55° Northeast 466 536 35,000  Level Houston Center
07:35PM 30.7483 -92.0639 54° Northeast 470 541 35,000  Level Houston Center
07:36PM 30.8383 -91.9136 55° Northeast 475 547 35,000  Level Houston Center
07:37PM 30.9147 -91.7883 55° Northeast 477 549 35,000  Level Houston Center
07:38PM 30.9903 -91.6625 55° Northeast 477 549 35,000  Level Houston Center
07:39PM 31.0656 -91.5358 55° Northeast 478 550 35,000  Level Houston Center
07:40PM 31.1400 -91.4119 55° Northeast 475 547 35,000  Level Houston Center
07:41PM 31.2150 -91.2844 55° Northeast 476 548 35,000  Level Houston Center
07:42PM 31.3061 -91.1328 55° Northeast 474 545 35,000  Level Houston Center
07:43PM 31.3789 -91.0064 56° Northeast 470 541 35,000  Level Houston Center
07:44PM 31.4539 -90.8794 55° Northeast 472 543 35,000  Level Houston Center
07:45PM 31.5278 -90.7522 56° Northeast 472 543 35,000  Level Houston Center
07:46PM 31.6025 -90.6258 55° Northeast 471 542 35,000  Level Houston Center
07:47PM 31.6764 -90.4978 56° Northeast 471 542 35,000  Level Houston Center
07:48PM 31.7514 -90.3700 55° Northeast 474 545 35,000  Level Houston Center
07:49PM 31.8408 -90.2136 56° Northeast 479 551 35,000  Level Houston Center
07:50PM 31.9147 -90.0867 56° Northeast 471 542 35,000  Level Houston Center
07:51PM 31.9850 -89.9639 56° Northeast 456 525 35,000  Level Houston Center
07:52PM 32.0653 -89.8253 56° Northeast 459 528 35,000  Level Memphis Center
07:53PM 32.1378 -89.6975 56° Northeast 459 528 35,000  Level Memphis Center
07:54PM 32.2100 -89.5667 57° Northeast 459 528 35,000  Level Memphis Center
07:55PM 32.2864 -89.4358 55° Northeast 465 535 35,000  Level Memphis Center
07:56PM 32.3628 -89.3047 55° Northeast 471 542 35,000 -420 Level Memphis Center
07:57PM 32.4344 -89.1708 58° Northeast 476 548 34,200 -1,140 Descending Memphis Center
07:58PM 32.5042 -89.0542 55° Northeast 481 554 32,800 -1,440 Descending Memphis Center
07:59PM 32.5739 -88.9250 57° Northeast 476 548 31,400 -1,440 Descending Memphis Center
08:00PM 32.6475 -88.7931 56° Northeast 476 548 30,000 -1,560 Descending Memphis Center
08:01PM 32.7208 -88.6608 57° Northeast 476 548 28,300 -1,800 Descending Memphis Center
08:02PM 32.7919 -88.5311 57° Northeast 476 548 26,400 -1,920 Descending Memphis Center
08:03PM 32.8653 -88.4008 56° Northeast 470 541 24,500 -1,980 Descending Memphis Center
08:06PM 33.0261 -88.0969 58° Northeast 441 507 19,700 -1,980 Descending Atlanta Center
08:07PM 33.0903 -87.9836 56° Northeast 431 496 17,800 -1,980 Descending Atlanta Center
08:08PM 33.1503 -87.8697 58° Northeast 417 480 15,800 -2,100 Descending Atlanta Center
08:08PM 33.1922 -87.7919 57° Northeast 378 435 14,400 -1,980 Descending Atlanta Center
08:09PM 33.2097 -87.7656 52° Northeast 394 453 13,900 -1,500 Descending Atlanta Center
08:10PM 33.2653 -87.6586 58° Northeast 381 438 12,400 -1,200 Descending Atlanta Center
08:11PM 33.3203 -87.5564 57° Northeast 370 426 11,500 -720 Descending Atlanta Center
08:12PM 33.3731 -87.4592 57° Northeast 358 412 11,000 -840 Descending Atlanta Center
08:13PM 33.4194 -87.3739 57° Northeast 330 380 9,900 -1,320 Descending Atlanta Center
08:14PM 33.4464 -87.2975 67° East 253 291 8,500 -1,560 Descending Atlanta Center
08:15PM 33.4714 -87.2189 69° East 256 295 7,000 -1,200 Descending Atlanta Center
08:16PM 33.4986 -87.1328 69° East 268 308 6,100 -480 Descending Atlanta Center
08:17PM 33.5258 -87.0514 68° East 259 298 6,000 -60 Descending Atlanta Center
08:18PM 33.5506 -86.9775 68° East 264 304 6,000  Level Atlanta Center
08:19PM 33.5775 -86.8961 68° East 265 305 6,000 -420 Level Atlanta Center
08:20PM 33.6294 -86.8106 54° Northeast 253 291 5,100 -480 Descending Atlanta Center
08:21PM 33.6686 -86.7469 53° Northeast 220 253 5,000 -360 Descending Atlanta Center
08:22PM 33.7031 -86.6931 52° Northeast 209 241 4,400 -900 Descending Atlanta Center
08:23PM 33.7356 -86.6342 56° Northeast 207 238 3,200 -720 Descending Atlanta Center
08:24PM 33.7053 -86.5858 127° Southeast 216 249 3,000 -120 Descending Atlanta Center
08:25PM 33.6528 -86.6042 196° South 202 232 3,000 -300 Level Atlanta Center
08:26PM 33.6203 -86.6556 233° Southwest 175 201 2,500 -600 Descending Atlanta Center
08:27PM 33.6008 -86.6925 238° Southwest 124 143 1,800 -720 Descending Atlanta Center
08:28PM 33.5792 -86.7317 236° Southwest 126 145 1,000 -780 Descending Atlanta Center